sensor_id;sensor_type;location;lat;lon;timestamp;P1;durP1;ratioP1;P2;durP2;ratioP2
72284;SDS011;60220;53.552;10.092;2023-05-07T00:00:01;13.93;;;8.75;;
72284;SDS011;60220;53.552;10.092;2023-05-07T00:02:32;11.10;;;7.40;;
72284;SDS011;60220;53.552;10.092;2023-05-07T00:05:02;12.68;;;8.55;;
72284;SDS011;60220;53.552;10.092;2023-05-07T00:07:32;13.82;;;8.85;;
72284;SDS011;60220;53.552;10.092;2023-05-07T00:09:59;12.57;;;7.60;;
72284;SDS011;60220;53.552;10.092;2023-05-07T00:12:26;12.18;;;7.97;;
72284;SDS011;60220;53.552;10.092;2023-05-07T00:14:52;14.05;;;8.07;;
72284;SDS011;60220;53.552;10.092;2023-05-07T00:17:20;13.55;;;8.35;;
72284;SDS011;60220;53.552;10.092;2023-05-07T00:19:47;11.88;;;7.32;;
72284;SDS011;60220;53.552;10.092;2023-05-07T00:22:14;14.13;;;8.30;;
72284;SDS011;60220;53.552;10.092;2023-05-07T00:24:40;14.63;;;8.30;;
72284;SDS011;60220;53.552;10.092;2023-05-07T00:27:07;12.85;;;8.05;;
72284;SDS011;60220;53.552;10.092;2023-05-07T00:29:34;13.77;;;8.00;;
72284;SDS011;60220;53.552;10.092;2023-05-07T00:32:01;11.63;;;7.40;;
72284;SDS011;60220;53.552;10.092;2023-05-07T00:34:29;13.07;;;7.95;;
72284;SDS011;60220;53.552;10.092;2023-05-07T00:36:56;11.88;;;7.07;;
72284;SDS011;60220;53.552;10.092;2023-05-07T00:39:23;12.30;;;7.85;;
72284;SDS011;60220;53.552;10.092;2023-05-07T00:41:49;12.68;;;7.78;;
72284;SDS011;60220;53.552;10.092;2023-05-07T00:44:16;13.02;;;7.97;;
72284;SDS011;60220;53.552;10.092;2023-05-07T00:46:46;14.75;;;8.00;;
72284;SDS011;60220;53.552;10.092;2023-05-07T00:49:15;13.18;;;8.48;;
72284;SDS011;60220;53.552;10.092;2023-05-07T00:51:43;14.13;;;7.65;;
72284;SDS011;60220;53.552;10.092;2023-05-07T00:54:10;13.55;;;8.07;;
72284;SDS011;60220;53.552;10.092;2023-05-07T00:56:37;14.77;;;8.38;;
72284;SDS011;60220;53.552;10.092;2023-05-07T00:59:04;13.25;;;7.50;;
72284;SDS011;60220;53.552;10.092;2023-05-07T01:01:34;11.10;;;7.90;;
72284;SDS011;60220;53.552;10.092;2023-05-07T01:04:01;12.75;;;7.20;;
72284;SDS011;60220;53.552;10.092;2023-05-07T01:06:33;12.65;;;7.18;;
72284;SDS011;60220;53.552;10.092;2023-05-07T01:09:04;9.48;;;7.05;;
72284;SDS011;60220;53.552;10.092;2023-05-07T01:11:31;12.43;;;6.63;;
72284;SDS011;60220;53.552;10.092;2023-05-07T01:13:58;11.55;;;7.32;;
72284;SDS011;60220;53.552;10.092;2023-05-07T01:16:26;10.32;;;6.35;;
72284;SDS011;60220;53.552;10.092;2023-05-07T01:18:52;9.60;;;6.60;;
72284;SDS011;60220;53.552;10.092;2023-05-07T01:21:19;12.10;;;6.90;;
72284;SDS011;60220;53.552;10.092;2023-05-07T01:23:52;9.40;;;6.90;;
72284;SDS011;60220;53.552;10.092;2023-05-07T01:26:21;10.68;;;6.70;;
72284;SDS011;60220;53.552;10.092;2023-05-07T01:28:48;13.07;;;7.38;;
72284;SDS011;60220;53.552;10.092;2023-05-07T01:31:15;11.43;;;7.03;;
72284;SDS011;60220;53.552;10.092;2023-05-07T01:33:46;10.82;;;6.90;;
72284;SDS011;60220;53.552;10.092;2023-05-07T01:36:18;9.32;;;6.22;;
72284;SDS011;60220;53.552;10.092;2023-05-07T01:38:46;10.80;;;7.00;;
72284;SDS011;60220;53.552;10.092;2023-05-07T01:41:14;10.25;;;6.57;;
72284;SDS011;60220;53.552;10.092;2023-05-07T01:43:41;11.18;;;7.50;;
72284;SDS011;60220;53.552;10.092;2023-05-07T01:46:12;10.90;;;6.90;;
72284;SDS011;60220;53.552;10.092;2023-05-07T01:48:41;9.07;;;6.30;;
72284;SDS011;60220;53.552;10.092;2023-05-07T01:51:11;9.48;;;6.95;;
72284;SDS011;60220;53.552;10.092;2023-05-07T01:53:38;10.75;;;6.30;;
72284;SDS011;60220;53.552;10.092;2023-05-07T01:56:07;9.45;;;5.90;;
72284;SDS011;60220;53.552;10.092;2023-05-07T01:58:35;10.05;;;6.25;;
72284;SDS011;60220;53.552;10.092;2023-05-07T02:01:02;10.85;;;7.18;;
72284;SDS011;60220;53.552;10.092;2023-05-07T02:03:29;10.02;;;6.40;;
72284;SDS011;60220;53.552;10.092;2023-05-07T02:05:55;9.40;;;6.13;;
72284;SDS011;60220;53.552;10.092;2023-05-07T02:08:22;14.45;;;6.70;;
72284;SDS011;60220;53.552;10.092;2023-05-07T02:10:49;12.20;;;6.68;;
72284;SDS011;60220;53.552;10.092;2023-05-07T02:13:16;10.05;;;5.43;;
72284;SDS011;60220;53.552;10.092;2023-05-07T02:15:44;9.68;;;6.32;;
72284;SDS011;60220;53.552;10.092;2023-05-07T02:18:15;9.02;;;6.07;;
72284;SDS011;60220;53.552;10.092;2023-05-07T02:20:50;9.77;;;6.43;;
72284;SDS011;60220;53.552;10.092;2023-05-07T02:23:16;9.25;;;6.05;;
72284;SDS011;60220;53.552;10.092;2023-05-07T02:25:43;9.93;;;5.82;;
72284;SDS011;60220;53.552;10.092;2023-05-07T02:28:11;8.48;;;5.82;;
72284;SDS011;60220;53.552;10.092;2023-05-07T02:30:37;8.68;;;5.57;;
72284;SDS011;60220;53.552;10.092;2023-05-07T02:33:06;9.98;;;6.32;;
72284;SDS011;60220;53.552;10.092;2023-05-07T02:35:34;10.35;;;5.65;;
72284;SDS011;60220;53.552;10.092;2023-05-07T02:38:02;8.68;;;5.82;;
72284;SDS011;60220;53.552;10.092;2023-05-07T02:40:29;7.97;;;5.65;;
72284;SDS011;60220;53.552;10.092;2023-05-07T02:43:03;11.75;;;6.07;;
72284;SDS011;60220;53.552;10.092;2023-05-07T02:45:33;9.63;;;5.65;;
72284;SDS011;60220;53.552;10.092;2023-05-07T02:47:59;9.70;;;6.30;;
72284;SDS011;60220;53.552;10.092;2023-05-07T02:50:27;8.70;;;5.80;;
72284;SDS011;60220;53.552;10.092;2023-05-07T02:52:57;12.77;;;6.55;;
72284;SDS011;60220;53.552;10.092;2023-05-07T02:55:23;9.15;;;5.97;;
72284;SDS011;60220;53.552;10.092;2023-05-07T02:57:52;9.98;;;6.35;;
72284;SDS011;60220;53.552;10.092;2023-05-07T03:00:19;9.43;;;6.15;;
72284;SDS011;60220;53.552;10.092;2023-05-07T03:02:47;9.52;;;5.70;;
72284;SDS011;60220;53.552;10.092;2023-05-07T03:05:13;11.02;;;6.57;;
72284;SDS011;60220;53.552;10.092;2023-05-07T03:07:41;12.43;;;6.80;;
72284;SDS011;60220;53.552;10.092;2023-05-07T03:10:12;13.23;;;8.07;;
72284;SDS011;60220;53.552;10.092;2023-05-07T03:12:39;10.93;;;6.68;;
72284;SDS011;60220;53.552;10.092;2023-05-07T03:15:06;12.02;;;7.78;;
72284;SDS011;60220;53.552;10.092;2023-05-07T03:17:33;11.48;;;7.25;;
72284;SDS011;60220;53.552;10.092;2023-05-07T03:20:02;12.20;;;7.35;;
72284;SDS011;60220;53.552;10.092;2023-05-07T03:22:32;12.45;;;7.70;;
72284;SDS011;60220;53.552;10.092;2023-05-07T03:25:00;12.23;;;7.45;;
72284;SDS011;60220;53.552;10.092;2023-05-07T03:27:26;12.45;;;7.55;;
72284;SDS011;60220;53.552;10.092;2023-05-07T03:29:53;12.85;;;7.45;;
72284;SDS011;60220;53.552;10.092;2023-05-07T03:32:20;11.75;;;7.05;;
72284;SDS011;60220;53.552;10.092;2023-05-07T03:34:49;9.95;;;7.20;;
72284;SDS011;60220;53.552;10.092;2023-05-07T03:37:16;10.65;;;6.82;;
72284;SDS011;60220;53.552;10.092;2023-05-07T03:39:45;11.02;;;6.28;;
72284;SDS011;60220;53.552;10.092;2023-05-07T03:42:13;11.60;;;6.90;;
72284;SDS011;60220;53.552;10.092;2023-05-07T03:44:42;11.57;;;6.57;;
72284;SDS011;60220;53.552;10.092;2023-05-07T03:47:08;12.05;;;6.57;;
72284;SDS011;60220;53.552;10.092;2023-05-07T03:49:35;11.05;;;7.40;;
72284;SDS011;60220;53.552;10.092;2023-05-07T03:52:02;12.13;;;6.93;;
72284;SDS011;60220;53.552;10.092;2023-05-07T03:54:30;10.57;;;6.40;;
72284;SDS011;60220;53.552;10.092;2023-05-07T03:56:56;11.02;;;6.35;;
72284;SDS011;60220;53.552;10.092;2023-05-07T03:59:24;12.15;;;6.95;;
72284;SDS011;60220;53.552;10.092;2023-05-07T04:01:53;9.57;;;6.63;;
72284;SDS011;60220;53.552;10.092;2023-05-07T04:04:20;10.35;;;6.57;;
72284;SDS011;60220;53.552;10.092;2023-05-07T04:06:47;9.70;;;6.00;;
72284;SDS011;60220;53.552;10.092;2023-05-07T04:09:13;11.18;;;6.45;;
72284;SDS011;60220;53.552;10.092;2023-05-07T04:11:40;12.68;;;7.07;;
72284;SDS011;60220;53.552;10.092;2023-05-07T04:14:07;12.75;;;6.70;;
72284;SDS011;60220;53.552;10.092;2023-05-07T04:16:35;9.80;;;6.38;;
72284;SDS011;60220;53.552;10.092;2023-05-07T04:19:04;9.48;;;6.38;;
72284;SDS011;60220;53.552;10.092;2023-05-07T04:21:31;12.07;;;7.38;;
72284;SDS011;60220;53.552;10.092;2023-05-07T04:23:58;12.02;;;6.75;;
72284;SDS011;60220;53.552;10.092;2023-05-07T04:26:24;10.82;;;7.40;;
72284;SDS011;60220;53.552;10.092;2023-05-07T04:28:53;10.00;;;6.38;;
72284;SDS011;60220;53.552;10.092;2023-05-07T04:31:20;10.82;;;6.55;;
72284;SDS011;60220;53.552;10.092;2023-05-07T04:33:50;9.45;;;6.38;;
72284;SDS011;60220;53.552;10.092;2023-05-07T04:36:17;9.52;;;5.90;;
72284;SDS011;60220;53.552;10.092;2023-05-07T04:38:44;8.77;;;5.88;;
72284;SDS011;60220;53.552;10.092;2023-05-07T04:41:12;10.27;;;6.55;;
72284;SDS011;60220;53.552;10.092;2023-05-07T04:43:39;13.57;;;7.30;;
72284;SDS011;60220;53.552;10.092;2023-05-07T04:46:08;10.00;;;6.13;;
72284;SDS011;60220;53.552;10.092;2023-05-07T04:48:35;9.68;;;6.00;;
72284;SDS011;60220;53.552;10.092;2023-05-07T04:51:03;9.20;;;6.07;;
72284;SDS011;60220;53.552;10.092;2023-05-07T04:53:30;9.75;;;6.57;;
72284;SDS011;60220;53.552;10.092;2023-05-07T04:55:57;9.77;;;6.47;;
72284;SDS011;60220;53.552;10.092;2023-05-07T04:58:24;10.05;;;5.70;;
72284;SDS011;60220;53.552;10.092;2023-05-07T05:00:51;8.80;;;5.60;;
72284;SDS011;60220;53.552;10.092;2023-05-07T05:03:18;10.20;;;6.55;;
72284;SDS011;60220;53.552;10.092;2023-05-07T05:05:48;9.80;;;6.53;;
72284;SDS011;60220;53.552;10.092;2023-05-07T05:08:16;9.45;;;5.43;;
72284;SDS011;60220;53.552;10.092;2023-05-07T05:10:43;9.45;;;6.03;;
72284;SDS011;60220;53.552;10.092;2023-05-07T05:13:11;9.50;;;5.70;;
72284;SDS011;60220;53.552;10.092;2023-05-07T05:15:40;11.02;;;6.80;;
72284;SDS011;60220;53.552;10.092;2023-05-07T05:18:07;9.80;;;6.32;;
72284;SDS011;60220;53.552;10.092;2023-05-07T05:20:34;11.52;;;6.22;;
72284;SDS011;60220;53.552;10.092;2023-05-07T05:23:01;12.63;;;6.47;;
72284;SDS011;60220;53.552;10.092;2023-05-07T05:25:29;8.32;;;5.80;;
72284;SDS011;60220;53.552;10.092;2023-05-07T05:27:57;10.02;;;5.30;;
72284;SDS011;60220;53.552;10.092;2023-05-07T05:30:26;10.57;;;6.30;;
72284;SDS011;60220;53.552;10.092;2023-05-07T05:32:53;12.63;;;6.68;;
72284;SDS011;60220;53.552;10.092;2023-05-07T05:35:20;9.13;;;5.80;;
72284;SDS011;60220;53.552;10.092;2023-05-07T05:37:46;8.38;;;5.95;;
72284;SDS011;60220;53.552;10.092;2023-05-07T05:40:15;9.32;;;6.47;;
72284;SDS011;60220;53.552;10.092;2023-05-07T05:42:44;9.45;;;6.38;;
72284;SDS011;60220;53.552;10.092;2023-05-07T05:45:11;8.25;;;5.60;;
72284;SDS011;60220;53.552;10.092;2023-05-07T05:47:38;11.18;;;6.68;;
72284;SDS011;60220;53.552;10.092;2023-05-07T05:50:05;10.40;;;6.95;;
72284;SDS011;60220;53.552;10.092;2023-05-07T05:52:33;12.10;;;8.07;;
72284;SDS011;60220;53.552;10.092;2023-05-07T05:55:00;11.82;;;6.90;;
72284;SDS011;60220;53.552;10.092;2023-05-07T05:57:26;13.63;;;6.97;;
72284;SDS011;60220;53.552;10.092;2023-05-07T05:59:54;16.50;;;9.27;;
72284;SDS011;60220;53.552;10.092;2023-05-07T06:02:21;12.88;;;7.55;;
72284;SDS011;60220;53.552;10.092;2023-05-07T06:04:50;10.10;;;6.40;;
72284;SDS011;60220;53.552;10.092;2023-05-07T06:07:19;8.98;;;6.07;;
72284;SDS011;60220;53.552;10.092;2023-05-07T06:09:45;11.70;;;6.35;;
72284;SDS011;60220;53.552;10.092;2023-05-07T06:12:12;8.88;;;5.97;;
72284;SDS011;60220;53.552;10.092;2023-05-07T06:14:42;9.85;;;6.28;;
72284;SDS011;60220;53.552;10.092;2023-05-07T06:17:10;9.27;;;5.90;;
72284;SDS011;60220;53.552;10.092;2023-05-07T06:19:37;8.52;;;6.03;;
72284;SDS011;60220;53.552;10.092;2023-05-07T06:22:05;9.88;;;6.10;;
72284;SDS011;60220;53.552;10.092;2023-05-07T06:24:31;10.65;;;6.35;;
72284;SDS011;60220;53.552;10.092;2023-05-07T06:26:58;8.63;;;5.93;;
72284;SDS011;60220;53.552;10.092;2023-05-07T06:29:25;8.32;;;6.13;;
72284;SDS011;60220;53.552;10.092;2023-05-07T06:31:51;9.27;;;6.38;;
72284;SDS011;60220;53.552;10.092;2023-05-07T06:34:20;9.57;;;5.95;;
72284;SDS011;60220;53.552;10.092;2023-05-07T06:36:46;12.82;;;7.55;;
72284;SDS011;60220;53.552;10.092;2023-05-07T06:39:13;8.15;;;5.50;;
72284;SDS011;60220;53.552;10.092;2023-05-07T06:41:40;8.95;;;5.90;;
72284;SDS011;60220;53.552;10.092;2023-05-07T06:44:07;8.60;;;5.40;;
72284;SDS011;60220;53.552;10.092;2023-05-07T06:46:34;8.93;;;5.50;;
72284;SDS011;60220;53.552;10.092;2023-05-07T06:49:00;8.73;;;5.35;;
72284;SDS011;60220;53.552;10.092;2023-05-07T06:51:32;7.45;;;5.28;;
72284;SDS011;60220;53.552;10.092;2023-05-07T06:54:01;8.70;;;5.50;;
72284;SDS011;60220;53.552;10.092;2023-05-07T06:56:29;8.32;;;5.70;;
72284;SDS011;60220;53.552;10.092;2023-05-07T06:58:56;9.23;;;5.32;;
72284;SDS011;60220;53.552;10.092;2023-05-07T07:01:23;8.95;;;5.75;;
72284;SDS011;60220;53.552;10.092;2023-05-07T07:03:55;9.98;;;6.53;;
72284;SDS011;60220;53.552;10.092;2023-05-07T07:06:21;7.85;;;5.63;;
72284;SDS011;60220;53.552;10.092;2023-05-07T07:08:49;9.68;;;5.40;;
72284;SDS011;60220;53.552;10.092;2023-05-07T07:11:16;9.02;;;5.13;;
72284;SDS011;60220;53.552;10.092;2023-05-07T07:13:43;12.45;;;5.95;;
72284;SDS011;60220;53.552;10.092;2023-05-07T07:16:09;7.93;;;5.22;;
72284;SDS011;60220;53.552;10.092;2023-05-07T07:18:36;8.90;;;5.80;;
72284;SDS011;60220;53.552;10.092;2023-05-07T07:21:05;7.47;;;5.05;;
72284;SDS011;60220;53.552;10.092;2023-05-07T07:23:32;10.15;;;5.13;;
72284;SDS011;60220;53.552;10.092;2023-05-07T07:26:02;8.40;;;6.00;;
72284;SDS011;60220;53.552;10.092;2023-05-07T07:28:29;8.00;;;5.00;;
72284;SDS011;60220;53.552;10.092;2023-05-07T07:30:55;6.10;;;5.13;;
72284;SDS011;60220;53.552;10.092;2023-05-07T07:33:22;9.32;;;4.55;;
72284;SDS011;60220;53.552;10.092;2023-05-07T07:35:48;7.43;;;4.07;;
72284;SDS011;60220;53.552;10.092;2023-05-07T07:38:15;6.88;;;4.28;;
72284;SDS011;60220;53.552;10.092;2023-05-07T07:40:42;7.05;;;3.97;;
72284;SDS011;60220;53.552;10.092;2023-05-07T07:43:10;7.45;;;4.60;;
72284;SDS011;60220;53.552;10.092;2023-05-07T07:45:37;6.60;;;4.78;;
72284;SDS011;60220;53.552;10.092;2023-05-07T07:48:04;6.80;;;4.68;;
72284;SDS011;60220;53.552;10.092;2023-05-07T07:50:31;5.82;;;4.60;;
72284;SDS011;60220;53.552;10.092;2023-05-07T07:52:58;10.88;;;5.57;;
72284;SDS011;60220;53.552;10.092;2023-05-07T07:55:25;6.25;;;4.65;;
72284;SDS011;60220;53.552;10.092;2023-05-07T07:57:52;6.15;;;4.75;;
72284;SDS011;60220;53.552;10.092;2023-05-07T08:00:21;11.00;;;6.18;;
72284;SDS011;60220;53.552;10.092;2023-05-07T08:02:47;6.47;;;4.88;;
72284;SDS011;60220;53.552;10.092;2023-05-07T08:05:14;5.88;;;4.22;;
72284;SDS011;60220;53.552;10.092;2023-05-07T08:07:41;8.20;;;5.38;;
72284;SDS011;60220;53.552;10.092;2023-05-07T08:10:08;6.93;;;4.90;;
72284;SDS011;60220;53.552;10.092;2023-05-07T08:12:37;7.85;;;5.00;;
72284;SDS011;60220;53.552;10.092;2023-05-07T08:15:04;6.65;;;4.72;;
72284;SDS011;60220;53.552;10.092;2023-05-07T08:17:33;5.65;;;4.75;;
72284;SDS011;60220;53.552;10.092;2023-05-07T08:20:00;11.48;;;5.05;;
72284;SDS011;60220;53.552;10.092;2023-05-07T08:22:27;10.85;;;5.15;;
72284;SDS011;60220;53.552;10.092;2023-05-07T08:24:53;7.10;;;5.32;;
72284;SDS011;60220;53.552;10.092;2023-05-07T08:27:22;7.18;;;4.63;;
72284;SDS011;60220;53.552;10.092;2023-05-07T08:29:52;7.47;;;5.53;;
72284;SDS011;60220;53.552;10.092;2023-05-07T08:32:18;6.95;;;4.82;;
72284;SDS011;60220;53.552;10.092;2023-05-07T08:34:46;8.20;;;5.55;;
72284;SDS011;60220;53.552;10.092;2023-05-07T08:37:13;10.40;;;5.45;;
72284;SDS011;60220;53.552;10.092;2023-05-07T08:39:40;6.90;;;4.80;;
72284;SDS011;60220;53.552;10.092;2023-05-07T08:42:06;12.63;;;6.25;;
72284;SDS011;60220;53.552;10.092;2023-05-07T08:44:35;7.65;;;4.85;;
72284;SDS011;60220;53.552;10.092;2023-05-07T08:47:06;8.55;;;4.85;;
72284;SDS011;60220;53.552;10.092;2023-05-07T08:49:33;6.03;;;4.40;;
72284;SDS011;60220;53.552;10.092;2023-05-07T08:52:02;7.47;;;5.00;;
72284;SDS011;60220;53.552;10.092;2023-05-07T08:54:29;7.47;;;4.82;;
72284;SDS011;60220;53.552;10.092;2023-05-07T08:56:59;6.18;;;4.70;;
72284;SDS011;60220;53.552;10.092;2023-05-07T08:59:26;8.82;;;4.38;;
72284;SDS011;60220;53.552;10.092;2023-05-07T09:01:55;11.43;;;4.65;;
72284;SDS011;60220;53.552;10.092;2023-05-07T09:04:22;7.60;;;4.85;;
72284;SDS011;60220;53.552;10.092;2023-05-07T09:06:48;6.53;;;5.03;;
72284;SDS011;60220;53.552;10.092;2023-05-07T09:09:18;6.78;;;4.60;;
72284;SDS011;60220;53.552;10.092;2023-05-07T09:11:45;5.32;;;4.03;;
72284;SDS011;60220;53.552;10.092;2023-05-07T09:14:11;5.93;;;4.85;;
72284;SDS011;60220;53.552;10.092;2023-05-07T09:16:38;8.15;;;3.97;;
72284;SDS011;60220;53.552;10.092;2023-05-07T09:19:09;6.15;;;4.47;;
72284;SDS011;60220;53.552;10.092;2023-05-07T09:21:36;5.45;;;4.10;;
72284;SDS011;60220;53.552;10.092;2023-05-07T09:24:03;7.25;;;4.40;;
72284;SDS011;60220;53.552;10.092;2023-05-07T09:26:31;6.10;;;4.32;;
72284;SDS011;60220;53.552;10.092;2023-05-07T09:28:59;6.13;;;4.47;;
72284;SDS011;60220;53.552;10.092;2023-05-07T09:31:25;6.00;;;4.18;;
72284;SDS011;60220;53.552;10.092;2023-05-07T09:33:52;6.47;;;4.88;;
72284;SDS011;60220;53.552;10.092;2023-05-07T09:36:20;6.00;;;4.68;;
72284;SDS011;60220;53.552;10.092;2023-05-07T09:38:47;4.78;;;4.30;;
72284;SDS011;60220;53.552;10.092;2023-05-07T09:41:14;9.52;;;5.18;;
72284;SDS011;60220;53.552;10.092;2023-05-07T09:43:42;7.20;;;4.28;;
72284;SDS011;60220;53.552;10.092;2023-05-07T09:46:11;5.13;;;4.22;;
72284;SDS011;60220;53.552;10.092;2023-05-07T09:48:41;5.07;;;4.25;;
72284;SDS011;60220;53.552;10.092;2023-05-07T09:51:12;5.43;;;4.25;;
72284;SDS011;60220;53.552;10.092;2023-05-07T09:53:47;6.30;;;4.88;;
72284;SDS011;60220;53.552;10.092;2023-05-07T09:56:14;4.57;;;3.88;;
72284;SDS011;60220;53.552;10.092;2023-05-07T09:58:43;5.32;;;4.20;;
72284;SDS011;60220;53.552;10.092;2023-05-07T10:01:12;6.57;;;4.57;;
72284;SDS011;60220;53.552;10.092;2023-05-07T10:03:39;6.40;;;4.63;;
72284;SDS011;60220;53.552;10.092;2023-05-07T10:06:08;5.82;;;4.40;;
72284;SDS011;60220;53.552;10.092;2023-05-07T10:08:36;8.10;;;5.07;;
72284;SDS011;60220;53.552;10.092;2023-05-07T10:11:04;7.97;;;4.72;;
72284;SDS011;60220;53.552;10.092;2023-05-07T10:13:31;6.40;;;4.82;;
72284;SDS011;60220;53.552;10.092;2023-05-07T10:16:01;5.35;;;4.70;;
72284;SDS011;60220;53.552;10.092;2023-05-07T10:18:31;6.00;;;4.70;;
72284;SDS011;60220;53.552;10.092;2023-05-07T10:21:00;11.05;;;4.60;;
72284;SDS011;60220;53.552;10.092;2023-05-07T10:23:32;6.80;;;4.97;;
72284;SDS011;60220;53.552;10.092;2023-05-07T10:26:00;6.78;;;4.53;;
72284;SDS011;60220;53.552;10.092;2023-05-07T10:28:33;5.13;;;4.45;;
72284;SDS011;60220;53.552;10.092;2023-05-07T10:31:18;6.68;;;4.32;;
72284;SDS011;60220;53.552;10.092;2023-05-07T10:33:59;5.00;;;4.50;;
72284;SDS011;60220;53.552;10.092;2023-05-07T10:36:43;5.90;;;4.50;;
72284;SDS011;60220;53.552;10.092;2023-05-07T10:39:10;5.32;;;4.20;;
72284;SDS011;60220;53.552;10.092;2023-05-07T10:41:38;4.90;;;4.13;;
72284;SDS011;60220;53.552;10.092;2023-05-07T10:44:05;10.55;;;4.28;;
72284;SDS011;60220;53.552;10.092;2023-05-07T10:46:34;5.88;;;4.72;;
72284;SDS011;60220;53.552;10.092;2023-05-07T10:49:06;4.88;;;3.97;;
72284;SDS011;60220;53.552;10.092;2023-05-07T10:51:36;6.05;;;4.10;;
72284;SDS011;60220;53.552;10.092;2023-05-07T10:56:49;6.18;;;4.95;;
72284;SDS011;60220;53.552;10.092;2023-05-07T10:59:34;6.15;;;4.88;;
72284;SDS011;60220;53.552;10.092;2023-05-07T11:02:08;4.93;;;4.00;;
72284;SDS011;60220;53.552;10.092;2023-05-07T11:04:38;5.03;;;4.15;;
72284;SDS011;60220;53.552;10.092;2023-05-07T11:07:28;4.22;;;3.83;;
72284;SDS011;60220;53.552;10.092;2023-05-07T11:12:51;5.22;;;4.15;;
72284;SDS011;60220;53.552;10.092;2023-05-07T11:15:34;5.28;;;4.05;;
72284;SDS011;60220;53.552;10.092;2023-05-07T11:18:04;5.35;;;3.58;;
72284;SDS011;60220;53.552;10.092;2023-05-07T11:20:49;5.55;;;4.22;;
72284;SDS011;60220;53.552;10.092;2023-05-07T11:26:03;4.43;;;3.90;;
72284;SDS011;60220;53.552;10.092;2023-05-07T11:28:30;8.18;;;4.40;;
72284;SDS011;60220;53.552;10.092;2023-05-07T11:33:32;6.40;;;3.45;;
72284;SDS011;60220;53.552;10.092;2023-05-07T11:36:02;4.05;;;3.60;;
72284;SDS011;60220;53.552;10.092;2023-05-07T11:38:29;4.47;;;3.40;;
72284;SDS011;60220;53.552;10.092;2023-05-07T11:40:56;3.75;;;3.22;;
72284;SDS011;60220;53.552;10.092;2023-05-07T11:43:25;5.38;;;3.30;;
72284;SDS011;60220;53.552;10.092;2023-05-07T11:45:52;4.53;;;3.75;;
72284;SDS011;60220;53.552;10.092;2023-05-07T11:48:20;3.65;;;3.35;;
72284;SDS011;60220;53.552;10.092;2023-05-07T11:50:52;4.30;;;3.70;;
72284;SDS011;60220;53.552;10.092;2023-05-07T11:53:20;3.60;;;3.15;;
72284;SDS011;60220;53.552;10.092;2023-05-07T11:55:51;4.70;;;3.72;;
72284;SDS011;60220;53.552;10.092;2023-05-07T11:58:21;3.67;;;3.30;;
72284;SDS011;60220;53.552;10.092;2023-05-07T12:00:48;8.00;;;3.00;;
72284;SDS011;60220;53.552;10.092;2023-05-07T12:03:18;4.40;;;3.08;;
72284;SDS011;60220;53.552;10.092;2023-05-07T12:05:47;3.10;;;2.85;;
72284;SDS011;60220;53.552;10.092;2023-05-07T12:08:15;3.67;;;3.08;;
72284;SDS011;60220;53.552;10.092;2023-05-07T12:10:42;3.60;;;3.10;;
72284;SDS011;60220;53.552;10.092;2023-05-07T12:13:16;4.85;;;3.33;;
72284;SDS011;60220;53.552;10.092;2023-05-07T12:15:44;5.50;;;2.92;;
72284;SDS011;60220;53.552;10.092;2023-05-07T12:18:13;3.88;;;3.08;;
72284;SDS011;60220;53.552;10.092;2023-05-07T12:20:41;3.65;;;3.17;;
72284;SDS011;60220;53.552;10.092;2023-05-07T12:23:08;2.80;;;2.60;;
72284;SDS011;60220;53.552;10.092;2023-05-07T12:25:37;3.25;;;2.95;;
72284;SDS011;60220;53.552;10.092;2023-05-07T12:28:07;4.05;;;3.08;;
72284;SDS011;60220;53.552;10.092;2023-05-07T12:30:36;3.08;;;2.78;;
72284;SDS011;60220;53.552;10.092;2023-05-07T12:33:05;4.93;;;3.20;;
72284;SDS011;60220;53.552;10.092;2023-05-07T12:35:35;6.35;;;4.03;;
72284;SDS011;60220;53.552;10.092;2023-05-07T12:38:07;3.58;;;2.72;;
72284;SDS011;60220;53.552;10.092;2023-05-07T12:40:37;2.45;;;2.25;;
72284;SDS011;60220;53.552;10.092;2023-05-07T12:43:04;2.88;;;2.60;;
72284;SDS011;60220;53.552;10.092;2023-05-07T12:45:31;3.47;;;2.75;;
72284;SDS011;60220;53.552;10.092;2023-05-07T12:48:03;3.10;;;2.80;;
72284;SDS011;60220;53.552;10.092;2023-05-07T12:50:33;3.20;;;2.88;;
72284;SDS011;60220;53.552;10.092;2023-05-07T12:53:03;3.58;;;3.28;;
72284;SDS011;60220;53.552;10.092;2023-05-07T12:55:31;3.00;;;2.70;;
72284;SDS011;60220;53.552;10.092;2023-05-07T12:58:00;2.63;;;2.40;;
72284;SDS011;60220;53.552;10.092;2023-05-07T13:00:33;3.83;;;2.92;;
72284;SDS011;60220;53.552;10.092;2023-05-07T13:03:03;5.35;;;2.50;;
72284;SDS011;60220;53.552;10.092;2023-05-07T13:05:30;3.70;;;2.63;;
72284;SDS011;60220;53.552;10.092;2023-05-07T13:07:57;3.58;;;2.60;;
72284;SDS011;60220;53.552;10.092;2023-05-07T13:10:26;2.72;;;2.42;;
72284;SDS011;60220;53.552;10.092;2023-05-07T13:12:53;2.92;;;2.63;;
72284;SDS011;60220;53.552;10.092;2023-05-07T13:15:22;4.45;;;2.80;;
72284;SDS011;60220;53.552;10.092;2023-05-07T13:17:51;2.80;;;2.47;;
72284;SDS011;60220;53.552;10.092;2023-05-07T13:20:19;2.70;;;2.50;;
72284;SDS011;60220;53.552;10.092;2023-05-07T13:22:47;3.72;;;2.45;;
72284;SDS011;60220;53.552;10.092;2023-05-07T13:25:16;2.63;;;2.33;;
72284;SDS011;60220;53.552;10.092;2023-05-07T13:27:43;3.10;;;2.40;;
72284;SDS011;60220;53.552;10.092;2023-05-07T13:30:09;2.53;;;2.28;;
72284;SDS011;60220;53.552;10.092;2023-05-07T13:32:38;3.38;;;2.45;;
72284;SDS011;60220;53.552;10.092;2023-05-07T13:35:07;3.33;;;2.30;;
72284;SDS011;60220;53.552;10.092;2023-05-07T13:37:34;4.22;;;3.10;;
72284;SDS011;60220;53.552;10.092;2023-05-07T13:40:00;2.67;;;2.40;;
72284;SDS011;60220;53.552;10.092;2023-05-07T13:42:28;3.50;;;2.30;;
72284;SDS011;60220;53.552;10.092;2023-05-07T13:44:54;3.35;;;2.20;;
72284;SDS011;60220;53.552;10.092;2023-05-07T13:47:23;3.03;;;2.25;;
72284;SDS011;60220;53.552;10.092;2023-05-07T13:49:53;2.65;;;1.88;;
72284;SDS011;60220;53.552;10.092;2023-05-07T13:52:22;2.72;;;1.75;;
72284;SDS011;60220;53.552;10.092;2023-05-07T13:54:51;1.77;;;1.60;;
72284;SDS011;60220;53.552;10.092;2023-05-07T13:57:20;2.45;;;1.80;;
72284;SDS011;60220;53.552;10.092;2023-05-07T13:59:47;2.78;;;2.05;;
72284;SDS011;60220;53.552;10.092;2023-05-07T14:02:13;2.25;;;1.67;;
72284;SDS011;60220;53.552;10.092;2023-05-07T14:04:41;3.55;;;2.10;;
72284;SDS011;60220;53.552;10.092;2023-05-07T14:07:11;2.60;;;2.00;;
72284;SDS011;60220;53.552;10.092;2023-05-07T14:09:40;1.90;;;1.63;;
72284;SDS011;60220;53.552;10.092;2023-05-07T14:12:08;2.30;;;1.40;;
72284;SDS011;60220;53.552;10.092;2023-05-07T14:14:35;2.10;;;1.27;;
72284;SDS011;60220;53.552;10.092;2023-05-07T14:17:02;2.67;;;1.80;;
72284;SDS011;60220;53.552;10.092;2023-05-07T14:19:28;2.00;;;1.30;;
72284;SDS011;60220;53.552;10.092;2023-05-07T14:21:57;3.00;;;1.63;;
72284;SDS011;60220;53.552;10.092;2023-05-07T14:24:27;3.10;;;1.80;;
72284;SDS011;60220;53.552;10.092;2023-05-07T14:26:54;2.20;;;1.35;;
72284;SDS011;60220;53.552;10.092;2023-05-07T14:29:21;1.60;;;1.25;;
72284;SDS011;60220;53.552;10.092;2023-05-07T14:31:47;1.60;;;1.20;;
72284;SDS011;60220;53.552;10.092;2023-05-07T14:34:17;2.47;;;1.30;;
72284;SDS011;60220;53.552;10.092;2023-05-07T14:36:43;3.55;;;1.50;;
72284;SDS011;60220;53.552;10.092;2023-05-07T14:39:13;1.55;;;1.10;;
72284;SDS011;60220;53.552;10.092;2023-05-07T14:41:41;3.20;;;1.38;;
72284;SDS011;60220;53.552;10.092;2023-05-07T14:44:07;2.92;;;1.40;;
72284;SDS011;60220;53.552;10.092;2023-05-07T14:46:34;1.95;;;1.40;;